Elk Run Heights, Iowa
Current Conditions -  °F | °C
As of 10:13 AM on Sunday 21 Dec 2014 (Local Time) from KALO Reporting Station
Haze Haze  
Wind Chill: 28°   Ceiling: 1100
Heat Index: 37°   Visibility: 6mi
Dew Point: 35°   Wind: 16mph
Humidity: 93%   Direction: 170°S
Pressure: 29.97"   Gusts: NA
Location:  42.4775°N, 92.2749°W
Report Text: KALO 211613Z 17014KT 6SM BR OVC011 03/02 A2997 RMK AO2 T00280017
Loading
Personal Weather Stations






























Interactive Weather Map New forecast layout! Learn more

10-Day Weather Forecast

Advertisements
Track Severe Weather on mobile